createdAt,value
2018-05-29T00:01:01.983Z,16.33
2018-05-29T00:03:29.608Z,17.00
2018-05-29T00:05:57.239Z,19.63
2018-05-29T00:08:24.871Z,20.77
2018-05-29T00:10:53.267Z,17.63
2018-05-29T00:13:20.900Z,18.70
2018-05-29T00:15:48.528Z,16.90
2018-05-29T00:18:16.159Z,16.53
2018-05-29T00:20:44.551Z,16.03
2018-05-29T00:23:12.183Z,16.77
2018-05-29T00:25:39.822Z,14.37
2018-05-29T00:28:07.450Z,18.07
2018-05-29T00:30:35.350Z,16.73
2018-05-29T00:33:02.984Z,16.60
2018-05-29T00:35:30.622Z,16.90
2018-05-29T00:37:58.258Z,17.40
2018-05-29T00:40:25.968Z,17.03
2018-05-29T00:42:53.599Z,17.73
2018-05-29T00:45:21.223Z,17.77
2018-05-29T00:47:48.850Z,14.63
2018-05-29T00:50:16.483Z,15.50
2018-05-29T00:52:44.122Z,14.77
2018-05-29T00:55:23.568Z,14.53
2018-05-29T00:57:51.211Z,14.93
2018-05-29T01:00:19.351Z,15.77
2018-05-29T01:02:47.003Z,15.43
2018-05-29T01:05:14.636Z,18.60
2018-05-29T01:07:42.264Z,15.60
2018-05-29T01:10:09.899Z,15.67
2018-05-29T01:12:37.531Z,16.97
2018-05-29T01:15:05.155Z,16.93
2018-05-29T01:17:32.787Z,16.20
2018-05-29T01:20:05.199Z,16.33
2018-05-29T01:22:32.838Z,16.20
2018-05-29T01:25:00.472Z,14.80
2018-05-29T01:27:28.098Z,18.03
2018-05-29T01:29:55.736Z,15.27
2018-05-29T01:32:23.364Z,15.77
2018-05-29T01:34:51.025Z,18.00
2018-05-29T01:37:18.652Z,16.43
2018-05-29T01:39:46.283Z,16.43
2018-05-29T01:42:13.919Z,16.67
2018-05-29T01:44:41.547Z,17.97
2018-05-29T01:47:09.190Z,17.10
2018-05-29T01:49:36.825Z,17.37
2018-05-29T01:52:04.460Z,17.23
2018-05-29T01:54:35.606Z,18.13
2018-05-29T01:57:03.238Z,16.03
2018-05-29T01:59:30.884Z,16.40
2018-05-29T02:01:58.514Z,18.03
2018-05-29T02:04:26.349Z,17.30
2018-05-29T02:06:53.922Z,18.50
2018-05-29T02:09:21.547Z,18.47
2018-05-29T02:11:49.175Z,15.80
2018-05-29T02:14:16.823Z,15.43
2018-05-29T02:16:44.460Z,17.77
2018-05-29T02:19:12.084Z,16.60
2018-05-29T02:21:40.042Z,17.23
2018-05-29T02:24:07.672Z,16.87
2018-05-29T02:26:35.308Z,20.27
2018-05-29T02:29:02.946Z,16.80
2018-05-29T02:31:31.339Z,17.73
2018-05-29T02:33:58.978Z,17.50
2018-05-29T02:36:26.604Z,17.70
2018-05-29T02:38:54.235Z,16.87
2018-05-29T02:41:21.858Z,17.97
2018-05-29T02:43:49.489Z,18.83
2018-05-29T02:46:17.120Z,18.87
2018-05-29T02:48:44.756Z,22.37
2018-05-29T02:51:12.392Z,19.80
2018-05-29T02:53:40.026Z,19.70
2018-05-29T02:56:07.652Z,18.53
2018-05-29T02:58:35.285Z,17.70
2018-05-29T03:01:02.915Z,18.90
2018-05-29T03:03:30.544Z,18.20
2018-05-29T03:05:58.180Z,18.83
2018-05-29T03:08:25.811Z,19.73
2018-05-29T03:10:53.695Z,21.20
2018-05-29T03:13:21.335Z,18.50
2018-05-29T03:15:48.971Z,18.10
2018-05-29T03:18:16.613Z,18.10
2018-05-29T03:20:44.236Z,20.27
2018-05-29T03:23:11.859Z,18.63
2018-05-29T03:25:39.491Z,18.33
2018-05-29T03:28:07.890Z,19.97
2018-05-29T03:30:35.529Z,20.40
2018-05-29T03:33:03.167Z,19.47
2018-05-29T03:35:30.811Z,18.30
2018-05-29T03:37:58.439Z,19.47
2018-05-29T03:40:26.842Z,16.83
2018-05-29T03:42:54.475Z,19.10
2018-05-29T03:45:22.111Z,20.43
2018-05-29T03:47:49.746Z,19.63
2018-05-29T03:50:17.387Z,19.10
2018-05-29T03:52:45.784Z,20.53
2018-05-29T03:55:14.188Z,22.20
2018-05-29T03:57:49.976Z,20.73
2018-05-29T04:00:17.736Z,17.97
2018-05-29T04:02:45.598Z,23.83
2018-05-29T04:05:15.639Z,18.60
2018-05-29T04:07:43.259Z,17.70
2018-05-29T04:10:10.898Z,21.80
2018-05-29T04:12:38.537Z,18.23
2018-05-29T04:15:06.167Z,19.17
2018-05-29T04:17:33.814Z,18.27
2018-05-29T04:20:01.436Z,20.70
2018-05-29T04:22:29.080Z,19.70
2018-05-29T04:24:56.703Z,18.27
2018-05-29T04:27:24.738Z,18.70
2018-05-29T04:29:52.424Z,19.07
2018-05-29T04:32:20.060Z,21.63
2018-05-29T04:34:47.692Z,20.47
2018-05-29T04:37:15.323Z,19.07
2018-05-29T04:39:42.962Z,19.87
2018-05-29T04:42:10.589Z,18.10
2018-05-29T04:44:38.219Z,18.10
2018-05-29T04:47:05.937Z,21.20
2018-05-29T04:49:33.526Z,21.60
2018-05-29T04:52:01.122Z,19.67
2018-05-29T04:54:28.748Z,20.50
2018-05-29T04:56:56.380Z,19.33
2018-05-29T04:59:24.008Z,19.77
2018-05-29T05:01:51.639Z,21.07
2018-05-29T05:04:19.286Z,21.40
2018-05-29T05:06:46.911Z,19.33
2018-05-29T05:09:14.535Z,21.07
2018-05-29T05:11:42.167Z,18.97
2018-05-29T05:14:09.796Z,19.97
2018-05-29T05:16:37.430Z,19.23
2018-05-29T05:19:05.063Z,18.00
2018-05-29T05:21:33.473Z,23.03
2018-05-29T05:24:01.108Z,16.63
2018-05-29T05:26:28.739Z,19.10
2018-05-29T05:28:56.375Z,19.40
2018-05-29T05:31:24.008Z,20.07
2018-05-29T05:33:52.409Z,18.43
2018-05-29T05:36:20.044Z,22.13
2018-05-29T05:38:47.667Z,18.33
2018-05-29T05:41:15.302Z,22.17
2018-05-29T05:43:42.943Z,21.03
2018-05-29T05:46:10.564Z,20.07
2018-05-29T05:48:38.256Z,19.93
2018-05-29T05:51:05.919Z,20.47
2018-05-29T05:53:33.526Z,21.53
2018-05-29T05:56:01.163Z,19.57
2018-05-29T05:58:28.853Z,21.23
2018-05-29T06:00:56.428Z,17.77
2018-05-29T06:03:24.055Z,18.67
2018-05-29T06:05:51.692Z,19.70
2018-05-29T06:08:19.319Z,21.43
2018-05-29T06:10:47.715Z,17.67
2018-05-29T06:13:15.345Z,19.50
2018-05-29T06:15:42.970Z,19.67
2018-05-29T06:18:10.610Z,18.60
2018-05-29T20:40:21.704Z,9.65
2018-05-29T20:42:49.328Z,8.03
2018-05-29T20:45:16.955Z,7.67
2018-05-29T20:47:44.576Z,8.47
2018-05-29T20:50:18.306Z,7.03
2018-05-29T20:52:45.931Z,9.53
2018-05-29T20:55:13.572Z,7.50
2018-05-29T20:57:41.970Z,6.33
2018-05-29T21:02:48.411Z,8.90
2018-05-29T21:05:16.036Z,11.37
2018-05-29T21:07:43.663Z,8.90
2018-05-29T21:10:11.287Z,8.53
2018-05-29T21:12:38.927Z,10.30
2018-05-29T21:15:06.560Z,10.00
2018-05-29T21:17:41.980Z,10.30
2018-05-29T21:20:09.622Z,7.87
2018-05-29T21:22:37.244Z,8.13
2018-05-29T21:25:05.260Z,9.73
2018-05-29T21:27:32.901Z,11.07
2018-05-29T21:30:00.528Z,7.43
2018-05-29T21:32:28.157Z,10.17
2018-05-29T21:34:56.123Z,9.93
2018-05-29T21:37:23.759Z,8.67
2018-05-29T21:39:51.387Z,8.43
2018-05-29T21:42:19.021Z,7.70
2018-05-29T21:44:46.644Z,9.07
2018-05-29T21:47:14.271Z,9.57
2018-05-29T21:49:58.571Z,10.20
2018-05-29T21:52:26.967Z,8.90
2018-05-29T21:54:54.598Z,9.27
2018-05-29T21:57:22.223Z,9.63
2018-05-29T21:59:49.853Z,9.93
2018-05-29T22:02:17.483Z,11.30
2018-05-29T22:04:45.109Z,10.03
2018-05-29T22:07:12.743Z,8.07
2018-05-29T22:09:41.143Z,10.83
2018-05-29T22:12:08.772Z,8.80
2018-05-29T22:14:36.407Z,9.40
2018-05-29T22:17:05.955Z,13.40
2018-05-29T22:19:33.588Z,9.97
2018-05-29T22:22:01.215Z,12.87
2018-05-29T22:24:28.851Z,10.10
2018-05-29T22:26:56.484Z,10.83
2018-05-29T22:29:24.127Z,10.73
2018-05-29T22:31:51.761Z,10.40
2018-05-29T22:34:19.400Z,12.83
2018-05-29T22:36:47.042Z,8.90
2018-05-29T22:39:14.681Z,10.97
2018-05-29T22:41:42.323Z,10.70
2018-05-29T22:44:09.952Z,10.70
2018-05-29T22:46:37.575Z,11.63
2018-05-29T22:49:05.219Z,10.83
2018-05-29T22:51:32.860Z,10.50
2018-05-29T22:54:00.493Z,8.87
2018-05-29T22:56:28.135Z,10.57
2018-05-29T22:58:55.767Z,10.93
2018-05-29T23:01:23.395Z,10.57
2018-05-29T23:03:51.022Z,9.40
2018-05-29T23:06:18.667Z,8.93
2018-05-29T23:08:46.327Z,9.93
2018-05-29T23:11:13.951Z,10.80
2018-05-29T23:13:41.579Z,11.13
2018-05-29T23:16:09.202Z,10.67
2018-05-29T23:18:36.851Z,10.10
2018-05-29T23:21:04.484Z,9.40
2018-05-29T23:23:32.127Z,12.73
2018-05-29T23:25:59.758Z,10.87
2018-05-29T23:28:27.407Z,12.07
2018-05-29T23:30:55.047Z,13.40
2018-05-29T23:33:27.910Z,11.77
2018-05-29T23:35:55.543Z,12.10
2018-05-29T23:38:23.180Z,13.53
2018-05-29T23:40:50.818Z,13.30
2018-05-29T23:43:18.462Z,11.80
2018-05-29T23:45:46.096Z,12.70
2018-05-29T23:48:13.728Z,14.80
2018-05-29T23:50:41.390Z,13.30
2018-05-29T23:53:09.038Z,12.70
2018-05-29T23:55:36.671Z,15.17
2018-05-29T23:58:04.331Z,13.13
